Terminal Aerodrome Forecast
Issued by NWS

Home | Current Version | Previous Version | Text Only | Print | Product List | Glossary On
Versions: 1 2 3 4 5 6 7 8 9 10 11 12 13 14
000
FTUS46 KMTR 182300
TAFOAK
TAF
KOAK 182338Z 1900/2006 27010KT P6SM SCT035 BKN050
     FM190700 29005KT P6SM BKN015 BKN040
     FM191200 VRB03KT P6SM OVC015
     FM192000 28012KT P6SM SCT030
     FM200300 28007KT P6SM SCT020=

USA.gov is the U.S. government's official web portal to all federal, state and local government web resources and services.